Time;durP1;ratioP1;P1;durP2;ratioP2;P2;SDS_P1;SDS_P2;PMS_P1;PMS_P2;Temp;Humidity;BMP_temperature;BMP_pressure;BME280_temperature;BME280_humidity;BME280_pressure;Samples;Min_cycle;Max_cycle;Signal;HPM_P1;HPM_P2
2023/05/12 00:01:32;;;;;;;1.80;1.70;;;;;;;;;;4995994;28;20185;-49
2023/05/12 00:03:57;;;;;;;2.08;1.88;;;;;;;;;;4997798;28;20188;-49
2023/05/12 00:06:23;;;;;;;1.90;1.75;;;;;;;;;;4998393;28;20184;-49
2023/05/12 00:08:50;;;;;;;2.08;1.65;;;;;;;;;;4995594;28;20565;-50
2023/05/12 00:11:16;;;;;;;3.50;2.00;;;;;;;;;;4997971;28;20531;-48
2023/05/12 00:13:42;;;;;;;1.98;1.55;;;;;;;;;;4995805;28;20276;-49
2023/05/12 00:16:09;;;;;;;2.03;1.83;;;;;;;;;;4997712;28;20213;-49
2023/05/12 00:18:34;;;;;;;2.50;2.10;;;;;;;;;;4996344;28;20577;-49
2023/05/12 00:21:00;;;;;;;2.25;1.50;;;;;;;;;;4996168;28;20204;-49
2023/05/12 00:23:26;;;;;;;1.92;1.83;;;;;;;;;;4996399;28;20185;-50
2023/05/12 00:25:52;;;;;;;1.80;1.70;;;;;;;;;;4996907;28;20240;-49
2023/05/12 00:28:18;;;;;;;2.20;1.90;;;;;;;;;;4996587;28;20185;-48
2023/05/12 00:30:44;;;;;;;2.00;1.80;;;;;;;;;;4996536;28;20200;-48
2023/05/12 00:33:10;;;;;;;1.80;1.70;;;;;;;;;;4997759;28;20228;-49
2023/05/12 00:35:36;;;;;;;2.30;1.88;;;;;;;;;;4997112;28;20223;-50
2023/05/12 00:38:02;;;;;;;1.77;1.67;;;;;;;;;;4997728;28;20298;-49
2023/05/12 00:40:28;;;;;;;2.38;1.85;;;;;;;;;;4996900;28;20204;-49
2023/05/12 00:42:54;;;;;;;2.20;1.95;;;;;;;;;;4996660;28;20197;-49
2023/05/12 00:45:20;;;;;;;1.73;1.63;;;;;;;;;;4994501;28;20181;-49
2023/05/12 00:47:46;;;;;;;2.00;1.80;;;;;;;;;;4997311;28;20577;-49
2023/05/12 00:50:12;;;;;;;1.75;1.65;;;;;;;;;;4996949;28;20196;-49
2023/05/12 00:52:38;;;;;;;1.83;1.58;;;;;;;;;;4997033;28;20535;-50
2023/05/12 00:55:05;;;;;;;2.15;1.75;;;;;;;;;;4996666;28;20373;-49
2023/05/12 00:57:31;;;;;;;1.95;1.70;;;;;;;;;;4997005;28;20263;-49
2023/05/12 00:59:57;;;;;;;1.90;1.70;;;;;;;;;;4995640;28;20205;-49
2023/05/12 01:02:23;;;;;;;1.75;1.30;;;;;;;;;;4994964;28;20227;-49
2023/05/12 01:04:50;;;;;;;2.35;1.85;;;;;;;;;;4993586;28;20185;-49
2023/05/12 01:07:18;;;;;;;1.95;1.55;;;;;;;;;;4996305;28;20753;-49
2023/05/12 01:09:44;;;;;;;2.17;1.98;;;;;;;;;;4996035;28;20181;-49
2023/05/12 01:12:10;;;;;;;2.00;1.70;;;;;;;;;;4996375;28;20458;-49
2023/05/12 01:14:36;;;;;;;2.25;1.80;;;;;;;;;;4995889;28;20197;-49
2023/05/12 01:17:04;;;;;;;2.22;1.80;;;;;;;;;;4996172;28;20185;-50
2023/05/12 01:19:41;;;;;;;1.80;1.60;;;;;;;;;;4995783;28;20217;-49
2023/05/12 01:22:08;;;;;;;1.70;1.60;;;;;;;;;;4996217;28;20181;-49
2023/05/12 01:24:35;;;;;;;3.10;1.60;;;;;;;;;;4994791;28;20185;-49
2023/05/12 01:27:02;;;;;;;3.10;1.70;;;;;;;;;;4995310;28;20185;-48
2023/05/12 01:29:28;;;;;;;2.08;1.70;;;;;;;;;;4995009;28;20189;-49
2023/05/12 01:31:54;;;;;;;1.70;1.60;;;;;;;;;;4996717;28;20264;-49
2023/05/12 01:34:20;;;;;;;1.50;1.40;;;;;;;;;;4995504;28;20220;-49
2023/05/12 01:36:46;;;;;;;2.55;1.70;;;;;;;;;;4995409;28;20240;-49
2023/05/12 01:39:13;;;;;;;1.50;1.40;;;;;;;;;;4994640;28;20540;-49
2023/05/12 01:41:38;;;;;;;1.58;1.48;;;;;;;;;;4988886;28;20183;-49
2023/05/12 01:44:04;;;;;;;2.05;1.50;;;;;;;;;;4995439;28;20185;-49
2023/05/12 01:46:30;;;;;;;2.50;1.70;;;;;;;;;;4996313;28;20625;-49
2023/05/12 01:48:56;;;;;;;1.80;1.70;;;;;;;;;;4995754;28;20243;-49
2023/05/12 01:51:22;;;;;;;1.90;1.70;;;;;;;;;;4994693;28;20220;-49
2023/05/12 01:53:48;;;;;;;1.60;1.50;;;;;;;;;;4997326;28;20184;-49
2023/05/12 01:56:14;;;;;;;1.73;1.50;;;;;;;;;;4995817;28;20271;-49
2023/05/12 01:58:40;;;;;;;1.63;1.52;;;;;;;;;;4995251;28;20208;-49
2023/05/12 02:01:06;;;;;;;1.75;1.65;;;;;;;;;;4995618;28;20195;-49
2023/05/12 02:03:32;;;;;;;1.95;1.80;;;;;;;;;;4994043;28;20696;-49
2023/05/12 02:05:58;;;;;;;1.80;1.70;;;;;;;;;;4994626;28;20192;-49
2023/05/12 02:08:24;;;;;;;2.35;2.15;;;;;;;;;;4995727;28;20216;-49
2023/05/12 02:10:50;;;;;;;1.70;1.40;;;;;;;;;;4994170;28;20185;-50
2023/05/12 02:13:15;;;;;;;1.70;1.40;;;;;;;;;;4995963;28;20185;-49
2023/05/12 02:15:41;;;;;;;1.80;1.70;;;;;;;;;;4993848;28;20193;-49
2023/05/12 02:18:07;;;;;;;1.92;1.70;;;;;;;;;;4994728;28;20671;-49
2023/05/12 02:20:33;;;;;;;1.52;1.42;;;;;;;;;;4993747;28;20237;-49
2023/05/12 02:23:00;;;;;;;2.72;1.52;;;;;;;;;;4995451;28;20240;-49
2023/05/12 02:25:26;;;;;;;1.75;1.65;;;;;;;;;;4993660;28;20181;-49
2023/05/12 02:27:52;;;;;;;1.77;1.60;;;;;;;;;;4995386;28;20217;-49
2023/05/12 02:30:18;;;;;;;2.47;1.70;;;;;;;;;;4993950;28;20565;-49
2023/05/12 02:32:44;;;;;;;1.90;1.55;;;;;;;;;;4995303;28;20180;-49
2023/05/12 02:35:10;;;;;;;1.83;1.73;;;;;;;;;;4994420;28;20240;-49
2023/05/12 02:37:36;;;;;;;1.65;1.55;;;;;;;;;;4994978;28;20520;-49
2023/05/12 02:40:02;;;;;;;1.92;1.50;;;;;;;;;;4994245;28;20209;-50
2023/05/12 02:42:33;;;;;;;1.92;1.65;;;;;;;;;;4992852;28;20177;-49
2023/05/12 02:44:59;;;;;;;1.75;1.48;;;;;;;;;;4989164;28;21739;-49
2023/05/12 02:47:25;;;;;;;1.30;1.20;;;;;;;;;;4998979;28;20215;-49
2023/05/12 02:49:51;;;;;;;1.67;1.50;;;;;;;;;;4997900;28;20192;-49
2023/05/12 02:52:17;;;;;;;1.67;1.58;;;;;;;;;;4994475;28;20177;-50
2023/05/12 02:54:43;;;;;;;1.67;1.58;;;;;;;;;;4994076;28;20532;-50
2023/05/12 02:57:10;;;;;;;1.45;1.35;;;;;;;;;;4994167;28;20209;-49
2023/05/12 02:59:36;;;;;;;1.60;1.50;;;;;;;;;;4994213;28;20291;-49
2023/05/12 03:02:04;;;;;;;1.67;1.58;;;;;;;;;;4993037;28;20201;-49
2023/05/12 03:04:31;;;;;;;1.70;1.60;;;;;;;;;;4991630;28;20169;-49
2023/05/12 03:06:57;;;;;;;2.25;1.40;;;;;;;;;;4992755;28;20906;-49
2023/05/12 03:09:23;;;;;;;1.45;1.33;;;;;;;;;;4994448;28;20219;-49
2023/05/12 03:11:49;;;;;;;1.98;1.45;;;;;;;;;;4993622;28;20229;-49
2023/05/12 03:14:15;;;;;;;1.42;1.27;;;;;;;;;;4993974;28;20244;-49
2023/05/12 03:16:41;;;;;;;1.50;1.40;;;;;;;;;;4993961;28;20185;-49
2023/05/12 03:19:07;;;;;;;1.60;1.30;;;;;;;;;;4993842;28;20217;-49
2023/05/12 03:21:33;;;;;;;1.48;1.38;;;;;;;;;;4993524;28;20181;-49
2023/05/12 03:23:59;;;;;;;1.60;1.50;;;;;;;;;;4993926;28;20181;-49
2023/05/12 03:26:25;;;;;;;1.77;1.67;;;;;;;;;;4993020;28;20227;-49
2023/05/12 03:28:51;;;;;;;1.42;1.33;;;;;;;;;;4994314;28;20657;-49
2023/05/12 03:31:17;;;;;;;1.50;1.40;;;;;;;;;;4995966;28;20181;-49
2023/05/12 03:33:43;;;;;;;1.60;1.50;;;;;;;;;;4998408;28;20185;-50
2023/05/12 03:36:09;;;;;;;1.60;1.50;;;;;;;;;;4997486;28;20196;-49
2023/05/12 03:38:35;;;;;;;1.63;1.52;;;;;;;;;;4998475;28;20288;-49
2023/05/12 03:41:05;;;;;;;1.73;1.50;;;;;;;;;;4996652;28;20268;-50
2023/05/12 03:43:31;;;;;;;2.17;1.83;;;;;;;;;;4998643;28;20455;-50
2023/05/12 03:45:56;;;;;;;25.98;5.20;;;;;;;;;;4996802;28;20185;-49
2023/05/12 03:48:22;;;;;;;36.67;8.05;;;;;;;;;;4997884;28;20606;-49
2023/05/12 03:50:48;;;;;;;43.45;10.65;;;;;;;;;;4995257;28;20177;-50
2023/05/12 03:53:14;;;;;;;41.70;10.05;;;;;;;;;;4997417;28;20201;-50
2023/05/12 03:55:41;;;;;;;38.28;10.15;;;;;;;;;;4995622;28;20231;-49
2023/05/12 03:58:07;;;;;;;38.20;10.45;;;;;;;;;;4997164;28;20185;-49
2023/05/12 04:00:33;;;;;;;41.08;9.93;;;;;;;;;;4996702;28;20189;-49
2023/05/12 04:02:59;;;;;;;37.53;8.95;;;;;;;;;;4996943;28;20185;-50
2023/05/12 04:05:25;;;;;;;33.15;9.07;;;;;;;;;;4995192;28;20210;-50
2023/05/12 04:07:51;;;;;;;30.90;8.85;;;;;;;;;;4997625;28;20252;-49
2023/05/12 04:10:17;;;;;;;30.58;9.40;;;;;;;;;;4996708;28;20566;-49
2023/05/12 04:12:43;;;;;;;31.15;8.10;;;;;;;;;;4997843;28;20220;-49
2023/05/12 04:15:09;;;;;;;31.70;9.40;;;;;;;;;;4997160;28;20188;-49
2023/05/12 04:17:35;;;;;;;27.08;8.40;;;;;;;;;;4997235;28;20283;-50
2023/05/12 04:20:01;;;;;;;26.75;7.95;;;;;;;;;;4996939;28;20442;-50
2023/05/12 04:22:27;;;;;;;29.88;9.27;;;;;;;;;;4996836;28;20186;-50
2023/05/12 04:24:53;;;;;;;27.42;8.00;;;;;;;;;;4997083;28;20442;-49
2023/05/12 04:27:19;;;;;;;30.08;8.65;;;;;;;;;;4995928;28;20185;-49
2023/05/12 04:29:45;;;;;;;19.67;7.80;;;;;;;;;;4997214;28;20212;-49
2023/05/12 04:32:11;;;;;;;26.42;7.43;;;;;;;;;;4997336;28;20185;-49
2023/05/12 04:34:37;;;;;;;25.45;7.65;;;;;;;;;;4997109;28;20565;-50
2023/05/12 04:37:03;;;;;;;22.42;7.18;;;;;;;;;;4997088;28;20523;-50
2023/05/12 04:39:29;;;;;;;28.67;8.23;;;;;;;;;;4996391;28;20209;-50
2023/05/12 04:41:54;;;;;;;25.73;7.57;;;;;;;;;;4995785;28;20185;-50
2023/05/12 04:44:21;;;;;;;24.50;7.72;;;;;;;;;;4993851;28;20201;-50
2023/05/12 04:46:48;;;;;;;19.88;7.38;;;;;;;;;;4979503;28;20280;-49
2023/05/12 04:49:14;;;;;;;22.88;7.90;;;;;;;;;;4996362;28;20201;-49
2023/05/12 04:51:41;;;;;;;26.33;7.90;;;;;;;;;;4996680;28;20225;-50
2023/05/12 04:54:10;;;;;;;21.98;7.68;;;;;;;;;;4997468;28;20577;-49
2023/05/12 04:56:36;;;;;;;19.33;7.28;;;;;;;;;;4996299;28;20251;-49
2023/05/12 04:59:02;;;;;;;23.17;7.47;;;;;;;;;;4996470;28;20209;-49
2023/05/12 05:01:28;;;;;;;20.48;7.50;;;;;;;;;;4994620;28;20189;-49
2023/05/12 05:03:54;;;;;;;21.52;7.45;;;;;;;;;;4995695;28;20188;-49
2023/05/12 05:06:20;;;;;;;23.70;7.68;;;;;;;;;;4994839;28;20225;-49
2023/05/12 05:08:46;;;;;;;23.33;7.03;;;;;;;;;;4994525;28;20524;-49
2023/05/12 05:11:12;;;;;;;19.77;7.15;;;;;;;;;;4994821;28;20192;-49
2023/05/12 05:13:38;;;;;;;19.35;6.75;;;;;;;;;;4996162;28;20185;-49
2023/05/12 05:16:04;;;;;;;18.23;7.00;;;;;;;;;;4994029;28;20209;-49
2023/05/12 05:18:30;;;;;;;22.20;7.18;;;;;;;;;;4994608;28;20231;-49
2023/05/12 05:20:56;;;;;;;23.25;7.72;;;;;;;;;;4995244;28;20181;-49
2023/05/12 05:23:21;;;;;;;15.52;6.32;;;;;;;;;;4996556;28;20188;-49
2023/05/12 05:25:47;;;;;;;19.70;6.78;;;;;;;;;;4995497;28;20291;-49
2023/05/12 05:28:13;;;;;;;17.15;6.65;;;;;;;;;;4995512;28;20537;-49
2023/05/12 05:30:39;;;;;;;17.33;6.82;;;;;;;;;;4995084;28;20185;-49
2023/05/12 05:33:05;;;;;;;19.45;7.03;;;;;;;;;;4994162;28;20476;-49
2023/05/12 05:35:31;;;;;;;18.20;6.90;;;;;;;;;;4995621;28;20178;-48
2023/05/12 05:37:57;;;;;;;16.33;6.57;;;;;;;;;;4995827;28;20221;-48
2023/05/12 05:40:23;;;;;;;15.93;6.38;;;;;;;;;;4994799;28;20516;-48
2023/05/12 05:42:49;;;;;;;16.50;6.80;;;;;;;;;;4995595;28;20260;-49
2023/05/12 05:45:15;;;;;;;17.67;6.53;;;;;;;;;;4995639;28;20252;-49
2023/05/12 05:47:41;;;;;;;15.02;6.30;;;;;;;;;;4995283;28;20224;-49
2023/05/12 05:50:07;;;;;;;15.60;5.43;;;;;;;;;;4994750;28;20213;-49
2023/05/12 05:52:33;;;;;;;16.20;6.57;;;;;;;;;;4993870;28;20600;-49
2023/05/12 05:55:00;;;;;;;15.75;6.38;;;;;;;;;;4994163;28;20193;-49
2023/05/12 05:57:27;;;;;;;15.65;6.38;;;;;;;;;;4995376;28;20224;-49
2023/05/12 05:59:53;;;;;;;15.45;6.35;;;;;;;;;;4994364;28;20201;-49
2023/05/12 06:02:22;;;;;;;16.10;6.05;;;;;;;;;;4994788;28;20184;-49
2023/05/12 06:04:47;;;;;;;14.05;5.68;;;;;;;;;;4994992;28;20292;-49
2023/05/12 06:07:13;;;;;;;12.18;5.85;;;;;;;;;;4995561;28;20266;-49
2023/05/12 06:09:39;;;;;;;14.90;5.85;;;;;;;;;;4994709;28;20193;-49
2023/05/12 06:12:05;;;;;;;13.13;6.07;;;;;;;;;;4993661;28;20193;-49
2023/05/12 06:14:31;;;;;;;14.48;5.90;;;;;;;;;;4994731;28;20200;-49
2023/05/12 06:16:57;;;;;;;15.55;5.28;;;;;;;;;;4995315;28;20185;-49
2023/05/12 06:19:23;;;;;;;15.00;6.07;;;;;;;;;;4993950;28;20227;-49
2023/05/12 06:21:51;;;;;;;12.68;5.30;;;;;;;;;;4993995;28;20189;-48
2023/05/12 06:24:17;;;;;;;15.60;5.47;;;;;;;;;;4994759;28;20228;-48
2023/05/12 06:26:43;;;;;;;13.23;5.75;;;;;;;;;;4993644;28;20557;-48
2023/05/12 06:29:09;;;;;;;11.05;5.53;;;;;;;;;;4994837;28;20185;-48
2023/05/12 06:31:35;;;;;;;13.85;5.40;;;;;;;;;;4994324;28;20188;-49
2023/05/12 06:34:01;;;;;;;12.60;5.88;;;;;;;;;;4995127;28;20187;-49
2023/05/12 06:36:28;;;;;;;11.55;4.97;;;;;;;;;;4993303;28;20177;-48
2023/05/12 06:38:54;;;;;;;11.07;5.35;;;;;;;;;;4993542;28;20210;-48
2023/05/12 06:41:20;;;;;;;12.80;5.45;;;;;;;;;;4995267;28;20177;-48
2023/05/12 06:43:46;;;;;;;13.40;5.57;;;;;;;;;;4995058;28;20189;-48
2023/05/12 06:46:13;;;;;;;13.48;5.63;;;;;;;;;;4995487;28;20192;-48
2023/05/12 06:48:39;;;;;;;13.40;5.28;;;;;;;;;;4993662;28;20223;-48
2023/05/12 06:51:05;;;;;;;10.90;5.28;;;;;;;;;;4994962;28;20182;-48
2023/05/12 06:53:32;;;;;;;10.05;4.97;;;;;;;;;;4994549;28;20489;-49
2023/05/12 06:55:58;;;;;;;12.27;5.28;;;;;;;;;;4995432;28;20204;-49
2023/05/12 06:58:24;;;;;;;12.50;5.18;;;;;;;;;;4994665;28;20472;-49
2023/05/12 07:00:50;;;;;;;13.98;5.13;;;;;;;;;;4993988;28;20189;-49
2023/05/12 07:03:16;;;;;;;11.75;4.80;;;;;;;;;;4994104;28;20209;-48
2023/05/12 07:05:42;;;;;;;10.85;4.45;;;;;;;;;;4994297;28;20236;-48
2023/05/12 07:08:08;;;;;;;12.80;5.28;;;;;;;;;;4994158;28;20184;-48
2023/05/12 07:10:34;;;;;;;13.73;4.63;;;;;;;;;;4993388;28;20240;-48
2023/05/12 07:13:00;;;;;;;11.32;4.97;;;;;;;;;;4994625;28;20589;-49
2023/05/12 07:15:26;;;;;;;9.07;4.57;;;;;;;;;;4994906;28;20181;-49
2023/05/12 07:17:54;;;;;;;12.13;5.18;;;;;;;;;;4995011;28;20268;-49
2023/05/12 07:20:20;;;;;;;12.48;4.97;;;;;;;;;;4993814;28;20267;-49
2023/05/12 07:22:46;;;;;;;11.80;4.72;;;;;;;;;;4994599;28;20560;-49
2023/05/12 07:25:12;;;;;;;8.98;4.47;;;;;;;;;;4991896;28;20229;-48
2023/05/12 07:27:38;;;;;;;9.68;4.68;;;;;;;;;;4993745;28;20193;-48
2023/05/12 07:30:07;;;;;;;10.68;5.00;;;;;;;;;;4993918;28;20184;-48
2023/05/12 07:32:33;;;;;;;11.88;5.05;;;;;;;;;;4994447;28;20439;-48
2023/05/12 07:35:00;;;;;;;10.02;4.55;;;;;;;;;;4994537;28;20185;-48
2023/05/12 07:37:26;;;;;;;12.15;4.75;;;;;;;;;;4994416;28;20185;-48
2023/05/12 07:39:51;;;;;;;8.63;4.07;;;;;;;;;;4993265;28;20220;-48
2023/05/12 07:42:17;;;;;;;11.57;4.65;;;;;;;;;;4993033;28;20204;-48
2023/05/12 07:44:43;;;;;;;11.00;4.57;;;;;;;;;;4993799;28;20231;-48
2023/05/12 07:47:09;;;;;;;9.32;4.18;;;;;;;;;;4993466;28;20232;-48
2023/05/12 07:49:35;;;;;;;8.95;4.43;;;;;;;;;;4993357;28;20231;-48
2023/05/12 07:52:01;;;;;;;12.80;4.10;;;;;;;;;;4993104;28;20181;-49
2023/05/12 07:54:27;;;;;;;9.43;4.18;;;;;;;;;;4993747;28;20472;-49
2023/05/12 07:56:53;;;;;;;8.52;3.85;;;;;;;;;;4993873;28;20561;-49
2023/05/12 07:59:19;;;;;;;9.10;4.53;;;;;;;;;;4993198;28;20243;-49
2023/05/12 08:01:45;;;;;;;8.63;4.10;;;;;;;;;;4993707;28;20177;-49
2023/05/12 08:04:10;;;;;;;7.63;3.92;;;;;;;;;;4993800;28;20624;-49
2023/05/12 08:06:36;;;;;;;8.65;3.60;;;;;;;;;;4994068;28;20181;-49
2023/05/12 08:09:02;;;;;;;9.77;4.72;;;;;;;;;;4990863;28;20220;-49
2023/05/12 08:11:28;;;;;;;8.98;4.15;;;;;;;;;;4992591;28;20185;-49
2023/05/12 08:13:54;;;;;;;7.93;4.10;;;;;;;;;;4993360;28;20559;-49
2023/05/12 08:16:20;;;;;;;7.88;3.95;;;;;;;;;;4993618;28;20192;-49
2023/05/12 08:18:46;;;;;;;8.90;4.30;;;;;;;;;;4995817;28;20619;-49
2023/05/12 08:21:12;;;;;;;7.10;4.00;;;;;;;;;;4997497;28;20178;-49
2023/05/12 08:23:38;;;;;;;7.97;4.28;;;;;;;;;;4996518;28;20196;-49
2023/05/12 08:26:04;;;;;;;8.90;4.22;;;;;;;;;;4997084;28;20185;-48
2023/05/12 08:28:30;;;;;;;7.57;3.83;;;;;;;;;;4997504;28;20441;-48
2023/05/12 08:30:57;;;;;;;9.02;4.05;;;;;;;;;;4996875;28;20197;-49
2023/05/12 08:33:23;;;;;;;7.75;4.03;;;;;;;;;;4996777;28;20243;-49
2023/05/12 08:35:49;;;;;;;6.60;3.60;;;;;;;;;;4996456;28;20181;-49
2023/05/12 08:38:21;;;;;;;9.90;3.90;;;;;;;;;;4995757;28;20260;-49
2023/05/12 08:40:56;;;;;;;7.57;3.63;;;;;;;;;;4995286;28;20188;-55
2023/05/12 08:43:24;;;;;;;6.50;3.45;;;;;;;;;;4996412;28;20169;-49
2023/05/12 08:45:50;;;;;;;5.38;3.50;;;;;;;;;;4995997;28;20557;-49
2023/05/12 08:48:17;;;;;;;6.93;3.70;;;;;;;;;;4997402;28;20240;-49
2023/05/12 08:50:43;;;;;;;7.97;3.53;;;;;;;;;;4996275;28;20188;-49
2023/05/12 08:53:11;;;;;;;7.10;3.55;;;;;;;;;;4996240;28;20280;-49
2023/05/12 08:55:37;;;;;;;7.32;4.05;;;;;;;;;;4996173;28;20193;-49
2023/05/12 08:58:03;;;;;;;5.60;2.90;;;;;;;;;;4995552;28;20560;-49
2023/05/12 09:00:31;;;;;;;6.95;3.80;;;;;;;;;;4996522;28;20248;-49
2023/05/12 09:02:57;;;;;;;8.30;3.70;;;;;;;;;;4978910;28;20219;-49
2023/05/12 09:05:24;;;;;;;8.13;3.90;;;;;;;;;;4996869;28;20204;-49
2023/05/12 09:07:51;;;;;;;5.40;3.03;;;;;;;;;;4995608;28;20191;-49
2023/05/12 09:10:18;;;;;;;5.10;3.53;;;;;;;;;;4996157;28;20197;-49
2023/05/12 09:12:49;;;;;;;5.53;3.50;;;;;;;;;;4996225;28;20177;-49
2023/05/12 09:15:18;;;;;;;8.82;3.63;;;;;;;;;;4995754;28;20235;-49
2023/05/12 09:17:43;;;;;;;6.63;3.60;;;;;;;;;;4996615;28;20268;-49
2023/05/12 09:20:11;;;;;;;7.38;3.20;;;;;;;;;;4994841;28;20639;-49
2023/05/12 09:22:38;;;;;;;7.95;3.60;;;;;;;;;;4995081;28;20184;-49
2023/05/12 09:25:17;;;;;;;7.95;3.72;;;;;;;;;;4996312;28;20173;-49
2023/05/12 09:27:43;;;;;;;6.15;3.42;;;;;;;;;;4996764;28;20272;-49
2023/05/12 09:30:09;;;;;;;6.00;3.05;;;;;;;;;;4994422;28;20256;-49
2023/05/12 09:32:35;;;;;;;6.10;3.20;;;;;;;;;;4995461;28;20217;-48
2023/05/12 09:35:02;;;;;;;5.97;3.10;;;;;;;;;;4976668;28;20577;-48
2023/05/12 09:37:32;;;;;;;5.95;3.00;;;;;;;;;;4995570;28;20181;-48
2023/05/12 09:39:59;;;;;;;5.22;2.95;;;;;;;;;;4994907;28;20205;-49
2023/05/12 09:42:28;;;;;;;5.43;3.33;;;;;;;;;;4996419;28;20220;-49
2023/05/12 09:44:58;;;;;;;4.78;2.90;;;;;;;;;;4996023;28;20185;-49
2023/05/12 09:47:26;;;;;;;7.88;3.20;;;;;;;;;;4996352;28;20184;-49
2023/05/12 09:49:54;;;;;;;5.35;2.80;;;;;;;;;;4978037;28;20197;-48
2023/05/12 09:52:21;;;;;;;5.22;2.92;;;;;;;;;;4995506;28;20189;-48
2023/05/12 09:54:47;;;;;;;6.50;3.20;;;;;;;;;;4992953;28;20181;-48
2023/05/12 09:57:15;;;;;;;4.85;2.72;;;;;;;;;;4996024;28;20199;-49
2023/05/12 09:59:42;;;;;;;6.68;3.80;;;;;;;;;;4995078;28;20211;-48
2023/05/12 10:02:08;;;;;;;6.53;3.10;;;;;;;;;;4987985;28;20617;-48
2023/05/12 10:04:38;;;;;;;5.38;2.70;;;;;;;;;;4995227;28;20234;-48
2023/05/12 10:07:06;;;;;;;4.75;2.80;;;;;;;;;;4995558;28;20181;-48
2023/05/12 10:09:35;;;;;;;4.60;2.95;;;;;;;;;;4994673;28;20224;-49
2023/05/12 10:12:03;;;;;;;4.85;3.08;;;;;;;;;;4995718;28;20551;-49
2023/05/12 10:14:29;;;;;;;6.40;3.35;;;;;;;;;;4995444;28;20250;-48
2023/05/12 10:16:55;;;;;;;5.40;3.08;;;;;;;;;;4995481;28;20200;-48
2023/05/12 10:19:22;;;;;;;5.18;2.75;;;;;;;;;;4994789;28;20623;-48
2023/05/12 10:21:48;;;;;;;5.20;2.92;;;;;;;;;;4996355;28;20189;-49
2023/05/12 10:24:15;;;;;;;4.35;2.78;;;;;;;;;;4994719;28;20212;-49
2023/05/12 10:26:42;;;;;;;4.65;3.03;;;;;;;;;;4978243;28;20477;-49
2023/05/12 10:29:08;;;;;;;5.75;3.00;;;;;;;;;;4981471;28;20216;-49
2023/05/12 10:31:35;;;;;;;3.60;2.45;;;;;;;;;;4994337;28;20205;-49
2023/05/12 10:34:01;;;;;;;4.32;2.58;;;;;;;;;;4995046;28;20192;-49
2023/05/12 10:36:27;;;;;;;5.10;2.42;;;;;;;;;;4994726;28;20193;-48
2023/05/12 10:38:53;;;;;;;9.48;3.03;;;;;;;;;;4993252;28;20208;-49
2023/05/12 10:41:29;;;;;;;4.50;2.60;;;;;;;;;;4994128;28;20174;-50
2023/05/12 10:43:55;;;;;;;7.28;2.70;;;;;;;;;;4994498;28;20533;-48
2023/05/12 10:46:23;;;;;;;5.57;2.10;;;;;;;;;;4995436;28;20188;-51
2023/05/12 10:49:02;;;;;;;6.03;2.42;;;;;;;;;;4993707;28;20559;-52
2023/05/12 10:51:29;;;;;;;7.57;2.50;;;;;;;;;;4994700;28;20234;-50
2023/05/12 10:53:57;;;;;;;10.32;2.50;;;;;;;;;;4994036;28;20192;-56
2023/05/12 10:56:28;;;;;;;7.97;3.08;;;;;;;;;;4994626;28;20200;-53
2023/05/12 10:59:10;;;;;;;3.15;2.10;;;;;;;;;;4993982;28;20236;-51
2023/05/12 11:01:36;;;;;;;6.28;2.30;;;;;;;;;;4992419;28;20219;-49
2023/05/12 11:04:12;;;;;;;5.60;2.08;;;;;;;;;;4988455;28;20277;-51
2023/05/12 11:06:38;;;;;;;6.15;2.30;;;;;;;;;;4994069;28;20212;-51
2023/05/12 11:09:04;;;;;;;8.68;2.33;;;;;;;;;;4992495;28;20478;-54
2023/05/12 11:11:31;;;;;;;3.70;2.25;;;;;;;;;;4995074;28;20193;-51
2023/05/12 11:13:57;;;;;;;4.65;2.45;;;;;;;;;;4994095;28;20193;-56
2023/05/12 11:16:23;;;;;;;8.13;2.70;;;;;;;;;;4994196;28;20236;-51
2023/05/12 11:19:00;;;;;;;5.20;2.58;;;;;;;;;;4993174;28;20201;-51
2023/05/12 11:21:27;;;;;;;2.83;2.38;;;;;;;;;;4994625;28;20210;-51
2023/05/12 11:23:54;;;;;;;5.65;2.35;;;;;;;;;;4993793;28;20561;-51
2023/05/12 11:26:20;;;;;;;6.60;2.75;;;;;;;;;;4994410;28;20267;-52
2023/05/12 11:28:46;;;;;;;7.20;2.50;;;;;;;;;;4993394;28;20380;-52
2023/05/12 11:31:18;;;;;;;13.80;2.33;;;;;;;;;;4993467;28;20288;-53
2023/05/12 11:33:44;;;;;;;7.30;2.30;;;;;;;;;;4994600;28;20181;-51
2023/05/12 11:36:10;;;;;;;6.32;2.60;;;;;;;;;;4993592;28;20219;-50
2023/05/12 11:38:36;;;;;;;3.97;2.35;;;;;;;;;;4992948;28;20204;-50
2023/05/12 11:41:02;;;;;;;5.65;2.25;;;;;;;;;;4993777;28;20216;-50
2023/05/12 11:43:28;;;;;;;5.22;2.53;;;;;;;;;;4994010;28;20211;-51
2023/05/12 11:45:54;;;;;;;3.97;2.53;;;;;;;;;;4994507;28;20193;-50
2023/05/12 11:48:21;;;;;;;4.07;2.50;;;;;;;;;;4993430;28;20180;-50
2023/05/12 11:50:47;;;;;;;4.30;2.30;;;;;;;;;;4994079;28;20185;-49
2023/05/12 11:53:17;;;;;;;4.18;2.33;;;;;;;;;;4996647;28;20189;-50
2023/05/12 11:55:47;;;;;;;5.80;2.40;;;;;;;;;;4997942;28;20235;-49
2023/05/12 11:58:18;;;;;;;2.97;2.45;;;;;;;;;;4990532;28;20216;-50
2023/05/12 12:00:44;;;;;;;7.53;2.42;;;;;;;;;;4997687;28;20453;-50
2023/05/12 12:03:13;;;;;;;4.50;2.35;;;;;;;;;;4997213;28;20315;-49
2023/05/12 12:05:40;;;;;;;3.65;2.88;;;;;;;;;;4998043;28;20621;-50
2023/05/12 12:08:07;;;;;;;4.25;2.70;;;;;;;;;;4997074;28;20185;-50
2023/05/12 12:10:34;;;;;;;3.67;2.90;;;;;;;;;;4997712;28;20178;-50
2023/05/12 12:13:01;;;;;;;3.47;2.38;;;;;;;;;;4997235;28;20189;-50
2023/05/12 12:15:27;;;;;;;3.88;2.38;;;;;;;;;;4997813;28;20185;-50
2023/05/12 12:17:53;;;;;;;2.60;2.30;;;;;;;;;;4997375;28;20291;-50
2023/05/12 12:20:20;;;;;;;2.58;2.35;;;;;;;;;;4997729;28;20312;-51
2023/05/12 12:22:46;;;;;;;4.03;2.45;;;;;;;;;;4996810;28;20181;-51
2023/05/12 12:25:12;;;;;;;6.20;2.60;;;;;;;;;;4997952;28;20201;-49
2023/05/12 12:27:38;;;;;;;3.13;2.70;;;;;;;;;;4997171;28;20264;-51
2023/05/12 12:30:04;;;;;;;3.05;2.75;;;;;;;;;;4996461;28;20185;-51
2023/05/12 12:32:30;;;;;;;3.20;2.53;;;;;;;;;;4997262;28;20192;-50
2023/05/12 12:34:58;;;;;;;6.22;2.45;;;;;;;;;;4995400;28;20197;-50
2023/05/12 12:37:24;;;;;;;6.15;2.70;;;;;;;;;;4993089;28;20177;-51
2023/05/12 12:39:50;;;;;;;5.13;2.80;;;;;;;;;;4993199;28;20216;-50
2023/05/12 12:42:16;;;;;;;3.45;2.40;;;;;;;;;;4996666;28;20182;-50
2023/05/12 12:44:44;;;;;;;5.60;2.65;;;;;;;;;;4996395;28;20181;-50
2023/05/12 12:47:10;;;;;;;3.88;2.45;;;;;;;;;;4996994;28;20203;-51
2023/05/12 12:49:36;;;;;;;4.97;2.65;;;;;;;;;;4997034;28;20637;-51
2023/05/12 12:52:02;;;;;;;4.40;2.47;;;;;;;;;;4996620;28;20189;-50
2023/05/12 12:54:28;;;;;;;2.95;2.58;;;;;;;;;;4996729;28;20185;-50
2023/05/12 12:56:55;;;;;;;4.18;2.60;;;;;;;;;;4996264;28;20239;-50
2023/05/12 12:59:21;;;;;;;6.10;2.55;;;;;;;;;;4996764;28;20304;-50
2023/05/12 13:01:47;;;;;;;2.88;2.50;;;;;;;;;;4996550;28;20272;-50
2023/05/12 13:04:13;;;;;;;3.17;2.60;;;;;;;;;;4996201;28;20173;-50
2023/05/12 13:06:39;;;;;;;3.30;2.80;;;;;;;;;;4996177;28;20248;-50
2023/05/12 13:09:05;;;;;;;3.17;2.30;;;;;;;;;;4996628;28;20268;-50
2023/05/12 13:11:31;;;;;;;3.72;2.60;;;;;;;;;;4994139;28;20276;-50
2023/05/12 13:13:57;;;;;;;4.10;2.88;;;;;;;;;;4994995;28;20255;-50
2023/05/12 13:16:23;;;;;;;3.28;2.85;;;;;;;;;;4997125;28;20177;-50
2023/05/12 13:18:49;;;;;;;4.65;2.97;;;;;;;;;;4995615;28;20288;-49
2023/05/12 13:21:15;;;;;;;3.35;2.60;;;;;;;;;;4996726;28;20189;-50
2023/05/12 13:23:41;;;;;;;7.05;2.47;;;;;;;;;;4995537;28;20186;-50
2023/05/12 13:26:07;;;;;;;3.67;2.58;;;;;;;;;;4996616;28;20600;-50
2023/05/12 13:28:33;;;;;;;2.55;2.35;;;;;;;;;;4995362;28;20181;-50
2023/05/12 13:30:59;;;;;;;3.35;2.58;;;;;;;;;;4996027;28;20181;-54
2023/05/12 13:33:25;;;;;;;10.68;3.03;;;;;;;;;;4996128;28;20189;-50
2023/05/12 13:35:51;;;;;;;3.63;2.55;;;;;;;;;;4997103;28;20936;-50
2023/05/12 13:38:18;;;;;;;2.65;2.35;;;;;;;;;;4995392;28;20271;-50
2023/05/12 13:40:45;;;;;;;2.40;2.20;;;;;;;;;;4995422;28;20173;-50
2023/05/12 13:43:11;;;;;;;2.30;2.10;;;;;;;;;;4995200;28;20576;-50
2023/05/12 13:45:37;;;;;;;4.45;2.58;;;;;;;;;;4991655;28;20182;-50
2023/05/12 13:48:03;;;;;;;4.05;2.47;;;;;;;;;;4992509;28;20644;-50
2023/05/12 13:50:29;;;;;;;2.45;2.22;;;;;;;;;;4994801;28;20270;-50
2023/05/12 13:52:55;;;;;;;2.95;2.22;;;;;;;;;;4993519;28;20189;-50
2023/05/12 13:55:21;;;;;;;2.17;1.98;;;;;;;;;;4995568;28;20260;-50
2023/05/12 13:57:47;;;;;;;3.88;2.75;;;;;;;;;;4995481;28;20248;-50
2023/05/12 14:00:15;;;;;;;2.30;2.10;;;;;;;;;;4995254;28;20259;-50
2023/05/12 14:02:41;;;;;;;2.13;1.92;;;;;;;;;;4994701;28;20178;-51
2023/05/12 14:05:08;;;;;;;4.38;2.08;;;;;;;;;;4995497;28;20199;-50
2023/05/12 14:07:33;;;;;;;2.33;2.13;;;;;;;;;;4994928;28;20177;-50
2023/05/12 14:10:00;;;;;;;2.50;2.28;;;;;;;;;;4993804;28;20514;-50
2023/05/12 14:12:26;;;;;;;4.47;2.15;;;;;;;;;;4993868;28;20526;-50
2023/05/12 14:14:52;;;;;;;2.75;2.47;;;;;;;;;;4995199;28;20225;-50
2023/05/12 14:17:18;;;;;;;4.75;2.25;;;;;;;;;;4993805;28;20188;-50
2023/05/12 14:19:47;;;;;;;2.97;1.92;;;;;;;;;;4995194;28;20212;-50
2023/05/12 14:22:13;;;;;;;3.92;1.85;;;;;;;;;;4994757;28;20220;-50
2023/05/12 14:24:40;;;;;;;3.22;2.10;;;;;;;;;;4995926;28;20232;-50
2023/05/12 14:27:06;;;;;;;2.50;2.20;;;;;;;;;;4995393;28;20203;-50
2023/05/12 14:29:32;;;;;;;3.33;2.10;;;;;;;;;;4994977;28;20221;-50
2023/05/12 14:31:58;;;;;;;2.40;2.20;;;;;;;;;;4995832;28;20185;-49
2023/05/12 14:34:24;;;;;;;3.35;2.33;;;;;;;;;;4996278;28;20185;-51